Time;durP1;ratioP1;P1;durP2;ratioP2;P2;SDS_P1;SDS_P2;PMS_P1;PMS_P2;Temp;Humidity;BMP_temperature;BMP_pressure;BME280_temperature;BME280_humidity;BME280_pressure;Samples;Min_cycle;Max_cycle;Signal;HPM_P1;HPM_P2
2022/04/06 00:00:42;;;;;;;5.22;3.90;;;;;;;2.60;73.86;96090.91;5117495;28;20019;-64
2022/04/06 00:03:08;;;;;;;3.85;3.33;;;;;;;2.68;73.48;96095.09;5117222;28;20119;-63
2022/04/06 00:05:33;;;;;;;3.72;3.35;;;;;;;2.67;73.31;96096.81;5117368;28;20440;-64
2022/04/06 00:07:59;;;;;;;4.85;3.42;;;;;;;2.69;73.53;96096.78;5117404;28;20019;-64
2022/04/06 00:10:25;;;;;;;5.47;4.07;;;;;;;2.68;73.11;96090.75;5117184;28;20031;-64
2022/04/06 00:12:51;;;;;;;5.95;3.47;;;;;;;2.70;73.35;96089.03;5117318;28;20092;-64
2022/04/06 00:15:17;;;;;;;4.32;3.17;;;;;;;2.72;73.19;96094.16;5117261;27;20418;-63
2022/04/06 00:17:42;;;;;;;4.20;3.15;;;;;;;2.74;72.77;96102.75;5117160;28;20607;-63
2022/04/06 00:20:09;;;;;;;3.45;3.15;;;;;;;2.76;72.77;96112.19;5116934;28;20034;-63
2022/04/06 00:22:35;;;;;;;5.72;3.58;;;;;;;2.68;73.13;96103.69;5117036;28;20115;-63
2022/04/06 00:25:01;;;;;;;5.20;4.07;;;;;;;2.69;73.02;96113.16;5117153;28;20409;-63
2022/04/06 00:27:27;;;;;;;5.10;3.38;;;;;;;2.68;73.50;96111.44;5116919;28;20132;-63
2022/04/06 00:29:52;;;;;;;5.32;3.75;;;;;;;2.66;73.33;96108.03;5116897;28;20481;-63
2022/04/06 00:32:18;;;;;;;5.68;3.97;;;;;;;2.63;73.50;96115.81;5117098;28;20027;-63
2022/04/06 00:37:28;;;;;;;4.50;3.80;;;;;;;2.51;73.09;96097.03;5116869;28;20124;-64
2022/04/06 00:39:54;;;;;;;3.80;3.38;;;;;;;2.50;73.04;96102.22;5116643;28;20477;-63
2022/04/06 00:42:19;;;;;;;3.55;3.10;;;;;;;2.44;72.86;96095.38;5116602;28;20023;-63
2022/04/06 00:44:45;;;;;;;4.70;3.70;;;;;;;2.26;73.70;96102.50;5116754;28;20057;-64
2022/04/06 00:47:11;;;;;;;5.07;3.75;;;;;;;2.28;73.58;96105.06;5116670;28;20016;-63
2022/04/06 00:49:36;;;;;;;5.22;3.40;;;;;;;2.33;73.28;96097.25;5116621;27;20442;-63
2022/04/06 00:52:05;;;;;;;4.35;3.25;;;;;;;2.30;73.44;96100.75;5116489;28;20571;-63
2022/04/06 00:54:32;;;;;;;2.72;2.53;;;;;;;2.27;73.51;96101.63;5116302;28;20020;-63
2022/04/06 00:56:59;;;;;;;4.25;3.65;;;;;;;2.24;73.87;96103.38;5116511;28;20473;-63
2022/04/06 00:59:28;;;;;;;6.05;3.72;;;;;;;2.23;74.57;96101.69;5116439;28;20034;-64
2022/04/06 01:01:54;;;;;;;4.78;3.45;;;;;;;2.10;74.54;96108.69;5116319;28;20450;-63
2022/04/06 01:04:20;;;;;;;4.90;3.65;;;;;;;2.10;75.17;96108.69;5116172;28;20020;-63
2022/04/06 01:06:48;;;;;;;4.47;3.70;;;;;;;2.16;74.82;96111.22;5115373;28;20048;-63
2022/04/06 01:09:18;;;;;;;4.43;3.70;;;;;;;2.13;74.18;96111.25;5116279;28;20016;-63
2022/04/06 01:11:45;;;;;;;5.60;4.10;;;;;;;2.06;74.48;96114.78;5116187;28;20031;-63
2022/04/06 01:14:12;;;;;;;11.05;6.15;;;;;;;2.01;75.14;96112.25;5116015;28;20023;-64
2022/04/06 01:16:38;;;;;;;6.05;4.20;;;;;;;2.02;75.37;96116.53;5114734;28;20165;-63
2022/04/06 01:19:04;;;;;;;6.57;4.88;;;;;;;2.04;75.27;96111.38;5115982;28;20027;-63
2022/04/06 01:21:30;;;;;;;8.48;4.57;;;;;;;2.01;75.17;96118.25;5115727;28;20044;-63
2022/04/06 01:23:57;;;;;;;5.40;3.83;;;;;;;1.89;75.64;96123.53;5115901;28;20023;-63
2022/04/06 01:26:23;;;;;;;5.60;4.00;;;;;;;1.85;75.34;96120.16;5115837;28;20020;-63
2022/04/06 01:28:50;;;;;;;4.75;3.58;;;;;;;1.81;75.34;96117.63;5115747;28;20026;-63
2022/04/06 01:31:16;;;;;;;6.90;4.07;;;;;;;1.79;75.54;96115.06;5115713;28;20019;-63
2022/04/06 01:33:42;;;;;;;4.35;3.95;;;;;;;1.69;76.29;96110.84;5115722;28;20020;-63
2022/04/06 01:36:07;;;;;;;4.25;3.58;;;;;;;1.74;76.35;96119.38;5115569;27;20020;-63
2022/04/06 01:38:34;;;;;;;9.48;3.63;;;;;;;1.80;75.89;96113.34;5115552;28;20433;-63
2022/04/06 01:41:00;;;;;;;4.45;3.70;;;;;;;1.76;75.15;96115.06;5115584;28;20019;-63
2022/04/06 01:43:25;;;;;;;6.60;3.72;;;;;;;1.70;75.70;96112.56;5115584;28;20527;-63
2022/04/06 01:45:51;;;;;;;5.03;4.22;;;;;;;1.68;75.95;96114.31;5115402;28;20076;-63
2022/04/06 01:48:17;;;;;;;7.30;4.25;;;;;;;1.62;76.89;96113.50;5115472;28;20024;-63
2022/04/06 01:53:28;;;;;;;6.28;3.95;;;;;;;1.62;77.46;96112.63;5115667;28;20096;-63
2022/04/06 01:55:55;;;;;;;6.78;4.65;;;;;;;1.59;76.98;96103.19;5115263;28;20016;-63
2022/04/06 01:58:22;;;;;;;5.63;3.90;;;;;;;1.60;76.52;96109.22;5115081;28;20457;-63
2022/04/06 02:00:49;;;;;;;4.80;4.25;;;;;;;1.60;76.42;96112.63;5115084;28;20051;-63
2022/04/06 02:03:15;;;;;;;7.15;4.90;;;;;;;1.60;76.89;96106.66;5115168;28;20538;-63
2022/04/06 02:05:40;;;;;;;5.72;4.63;;;;;;;1.59;77.13;96113.50;5115226;28;20024;-64
2022/04/06 02:08:07;;;;;;;5.55;3.92;;;;;;;1.60;77.18;96117.78;5115102;28;20503;-63
2022/04/06 02:10:33;;;;;;;5.38;4.03;;;;;;;1.62;76.53;96116.06;5115037;28;20019;-63
2022/04/06 02:12:59;;;;;;;5.75;3.78;;;;;;;1.65;75.74;96115.19;5115002;28;20431;-63
2022/04/06 02:15:27;;;;;;;5.82;4.20;;;;;;;1.58;75.66;96122.13;5114808;28;20473;-63
2022/04/06 02:17:53;;;;;;;6.13;4.00;;;;;;;1.59;75.66;96125.53;5114785;28;20026;-64
2022/04/06 02:20:19;;;;;;;4.65;3.97;;;;;;;1.61;75.52;96126.41;5114572;28;20066;-63
2022/04/06 02:22:45;;;;;;;5.50;3.92;;;;;;;1.59;75.55;96125.53;5114612;28;20059;-63
2022/04/06 02:25:14;;;;;;;7.80;4.45;;;;;;;1.60;75.19;96132.44;5114715;28;20462;-63
2022/04/06 02:27:51;;;;;;;4.70;4.18;;;;;;;1.49;74.96;96120.50;5114683;28;20093;-64
2022/04/06 02:30:18;;;;;;;7.43;4.65;;;;;;;1.38;75.67;96119.69;5114717;28;20030;-63
2022/04/06 02:32:44;;;;;;;5.22;4.13;;;;;;;1.35;75.70;96123.16;5114616;28;20027;-64
2022/04/06 02:35:11;;;;;;;5.18;4.60;;;;;;;1.32;75.89;96124.94;5114405;28;20019;-64
2022/04/06 02:37:37;;;;;;;5.95;4.10;;;;;;;1.33;75.71;96124.94;5114324;27;20027;-64
2022/04/06 02:40:04;;;;;;;6.38;4.53;;;;;;;1.36;76.08;96129.19;5114541;28;20019;-63
2022/04/06 02:42:30;;;;;;;5.95;4.25;;;;;;;1.24;76.34;96125.00;5114477;28;20031;-63
2022/04/06 02:44:56;;;;;;;5.63;4.45;;;;;;;1.18;76.59;96125.03;5114443;28;20020;-63
2022/04/06 02:47:21;;;;;;;8.07;4.25;;;;;;;1.14;76.49;96124.19;5114272;28;20076;-63
2022/04/06 02:49:47;;;;;;;7.13;5.18;;;;;;;1.10;76.42;96128.53;5114302;28;20016;-63
2022/04/06 02:52:12;;;;;;;7.28;4.55;;;;;;;1.11;76.44;96124.19;5114135;28;20019;-63
2022/04/06 02:54:38;;;;;;;5.03;4.32;;;;;;;1.18;77.25;96130.19;5114124;28;20029;-64
2022/04/06 02:57:06;;;;;;;6.10;4.68;;;;;;;1.15;76.80;96135.34;5114185;28;20469;-63
2022/04/06 02:59:32;;;;;;;5.95;4.20;;;;;;;1.08;77.23;96132.81;5114000;28;20165;-63
2022/04/06 03:01:57;;;;;;;6.60;4.60;;;;;;;1.02;77.65;96140.59;5113964;28;20051;-63
2022/04/06 03:04:23;;;;;;;7.72;4.93;;;;;;;1.03;77.68;96142.31;5114077;28;20469;-63
2022/04/06 03:06:49;;;;;;;5.95;4.47;;;;;;;0.99;78.03;96140.59;5113956;28;20477;-64
2022/04/06 03:09:14;;;;;;;5.47;4.35;;;;;;;1.10;77.32;96143.97;5113940;28;20419;-63
2022/04/06 03:11:40;;;;;;;7.13;5.10;;;;;;;1.14;76.96;96152.53;5113876;28;20030;-63
2022/04/06 03:14:06;;;;;;;6.63;4.30;;;;;;;1.16;76.68;96148.22;5113983;28;20020;-63
2022/04/06 03:16:31;;;;;;;5.93;4.55;;;;;;;1.20;76.17;96146.50;5114046;28;20496;-63
2022/04/06 03:18:57;;;;;;;7.15;4.45;;;;;;;1.16;76.03;96150.81;5113801;28;20045;-63
2022/04/06 03:21:23;;;;;;;8.80;5.10;;;;;;;1.19;75.73;96148.22;5113433;28;20099;-63
2022/04/06 03:23:48;;;;;;;4.53;4.07;;;;;;;1.24;75.29;96150.75;5113617;28;20047;-63
2022/04/06 03:26:15;;;;;;;8.18;4.55;;;;;;;1.25;75.64;96155.03;5113570;28;20020;-63
2022/04/06 03:28:41;;;;;;;6.03;4.97;;;;;;;1.17;76.07;96159.41;5113240;28;20035;-64
2022/04/06 03:31:07;;;;;;;5.70;4.88;;;;;;;1.11;75.91;96157.69;5113780;28;20465;-63
2022/04/06 03:33:33;;;;;;;6.85;4.20;;;;;;;1.10;75.72;96162.00;5113625;28;20100;-63
2022/04/06 03:35:59;;;;;;;5.40;4.40;;;;;;;1.12;75.57;96165.41;5113484;28;20062;-63
2022/04/06 03:38:25;;;;;;;6.03;4.45;;;;;;;1.10;75.57;96162.00;5113450;28;20058;-63
2022/04/06 03:40:51;;;;;;;8.25;4.93;;;;;;;1.11;75.87;96166.28;5113615;28;20015;-63
2022/04/06 03:43:17;;;;;;;4.95;4.45;;;;;;;1.11;75.90;96158.56;5113473;28;20024;-63
2022/04/06 03:45:42;;;;;;;6.85;4.38;;;;;;;1.04;76.81;96168.91;5113591;28;20011;-63
2022/04/06 03:48:09;;;;;;;6.07;4.45;;;;;;;1.11;76.56;96170.59;5113526;28;20446;-63
2022/04/06 03:50:34;;;;;;;5.20;4.30;;;;;;;1.09;76.23;96169.75;5113499;28;20034;-63
2022/04/06 03:53:00;;;;;;;6.50;4.65;;;;;;;1.09;75.93;96172.34;5113354;28;20015;-63
2022/04/06 03:55:26;;;;;;;4.90;4.07;;;;;;;1.02;75.77;96176.66;5113395;28;20148;-63
2022/04/06 03:57:51;;;;;;;5.97;4.53;;;;;;;0.98;75.56;96172.38;5113419;28;20068;-63
2022/04/06 04:00:17;;;;;;;9.85;4.70;;;;;;;0.95;75.92;96172.41;5113359;28;20097;-63
2022/04/06 04:02:46;;;;;;;6.70;4.63;;;;;;;1.06;75.66;96180.94;5113359;28;20042;-63
2022/04/06 04:05:12;;;;;;;10.32;8.45;;;;;;;1.04;76.19;96179.22;5113264;28;20022;-63
2022/04/06 04:07:38;;;;;;;7.80;5.45;;;;;;;0.96;76.55;96174.97;5113383;28;20114;-63
2022/04/06 04:10:08;;;;;;;12.82;5.85;;;;;;;0.93;76.19;96174.16;5113243;28;20099;-63
2022/04/06 04:12:34;;;;;;;5.88;4.72;;;;;;;0.96;76.78;96176.72;5113250;28;20024;-63
2022/04/06 04:15:00;;;;;;;6.75;5.55;;;;;;;1.03;76.48;96180.09;5113275;28;20073;-63
2022/04/06 04:17:26;;;;;;;5.97;4.47;;;;;;;1.05;76.39;96184.38;5113167;28;20020;-63
2022/04/06 04:19:51;;;;;;;6.47;5.00;;;;;;;1.10;76.91;96184.34;5113296;28;20020;-63
2022/04/06 04:22:17;;;;;;;7.55;5.03;;;;;;;1.11;77.72;96186.91;5112774;28;20455;-64
2022/04/06 04:24:43;;;;;;;9.55;5.38;;;;;;;1.14;77.47;96173.13;5113208;28;20058;-63
2022/04/06 04:27:09;;;;;;;7.68;5.43;;;;;;;1.28;77.34;96182.50;5113091;28;20028;-63
2022/04/06 04:29:35;;;;;;;7.07;4.75;;;;;;;1.32;76.57;96187.63;5113083;28;20111;-63
2022/04/06 04:32:01;;;;;;;12.95;5.45;;;;;;;1.34;76.59;96187.63;5113141;28;20024;-63
2022/04/06 04:34:26;;;;;;;6.88;4.50;;;;;;;1.44;77.04;96189.25;5113099;28;20027;-63
2022/04/06 04:36:53;;;;;;;6.55;4.90;;;;;;;1.80;77.11;96185.56;5112932;28;20107;-63
2022/04/06 04:39:18;;;;;;;5.55;4.72;;;;;;;2.40;76.02;96186.66;5112938;28;20055;-64
2022/04/06 04:41:45;;;;;;;5.70;4.63;;;;;;;3.14;74.13;96186.63;5115124;28;20406;-63
2022/04/06 04:44:11;;;;;;;9.90;4.30;;;;;;;3.90;71.08;96189.75;5116666;28;20415;-63
2022/04/06 04:46:37;;;;;;;4.22;3.83;;;;;;;4.64;68.71;96200.50;5116632;28;20027;-63
2022/04/06 04:49:03;;;;;;;6.05;3.08;;;;;;;5.35;66.18;96201.63;5116586;28;20027;-63
2022/04/06 04:51:28;;;;;;;7.25;3.97;;;;;;;6.11;64.42;96196.41;5116683;27;20098;-63
2022/04/06 04:53:57;;;;;;;7.03;4.10;;;;;;;6.99;61.80;96200.97;5116506;28;20488;-64
2022/04/06 04:56:24;;;;;;;5.68;4.32;;;;;;;7.82;58.43;96209.72;5116528;28;20043;-64
2022/04/06 04:58:51;;;;;;;6.18;4.55;;;;;;;8.62;56.75;96214.94;5116290;28;20031;-63
2022/04/06 05:01:17;;;;;;;5.28;3.60;;;;;;;9.31;55.02;96225.50;5116211;28;20019;-63
2022/04/06 05:03:42;;;;;;;3.85;3.25;;;;;;;9.94;52.57;96219.53;5116366;28;20020;-63
2022/04/06 05:06:08;;;;;;;5.07;3.33;;;;;;;10.56;51.43;96218.78;5116375;28;20024;-64
2022/04/06 05:08:34;;;;;;;5.00;3.70;;;;;;;11.22;50.25;96227.25;5116158;28;20031;-64
2022/04/06 05:10:59;;;;;;;7.65;3.30;;;;;;;11.74;47.60;96228.34;5116193;28;20023;-64
2022/04/06 05:13:25;;;;;;;7.28;3.97;;;;;;;12.18;47.73;96234.16;5116177;28;20501;-64
2022/04/06 05:15:51;;;;;;;6.15;3.50;;;;;;;12.75;47.08;96233.06;5115950;28;20062;-64
2022/04/06 05:18:16;;;;;;;6.82;4.60;;;;;;;13.28;45.87;96234.72;5116126;28;20057;-63
2022/04/06 05:20:42;;;;;;;4.22;3.25;;;;;;;13.56;44.69;96235.88;5115985;28;20039;-64
2022/04/06 05:23:07;;;;;;;3.78;3.17;;;;;;;14.22;43.93;96234.88;5115818;28;20477;-64
2022/04/06 05:25:33;;;;;;;3.38;3.08;;;;;;;14.81;42.66;96235.91;5115863;28;20023;-63
2022/04/06 05:27:59;;;;;;;3.85;2.80;;;;;;;15.13;42.26;96239.22;5115907;27;20481;-64
2022/04/06 05:30:26;;;;;;;6.43;3.10;;;;;;;15.49;40.96;96234.38;5115833;28;20028;-63
2022/04/06 05:32:53;;;;;;;2.92;2.63;;;;;;;15.83;40.64;96241.94;5115876;28;20492;-63
2022/04/06 05:35:19;;;;;;;3.67;2.97;;;;;;;16.38;40.40;96239.28;5115713;28;20023;-64
2022/04/06 05:37:46;;;;;;;3.75;3.13;;;;;;;16.51;38.25;96246.41;5115671;28;20027;-63
2022/04/06 05:40:16;;;;;;;4.15;2.95;;;;;;;16.76;38.30;96234.19;5115655;28;20024;-64
2022/04/06 05:42:42;;;;;;;3.28;2.97;;;;;;;17.22;37.70;96242.56;5115501;28;20106;-64
2022/04/06 05:45:09;;;;;;;3.55;2.92;;;;;;;17.57;37.83;96243.69;5114257;28;20476;-64
2022/04/06 05:47:36;;;;;;;7.00;2.58;;;;;;;17.90;36.80;96251.00;5115565;28;20027;-64
2022/04/06 05:50:03;;;;;;;3.95;2.90;;;;;;;18.09;35.80;96249.63;5115318;28;20141;-64
2022/04/06 05:52:29;;;;;;;7.95;3.55;;;;;;;18.60;35.02;96247.72;5115077;28;20019;-64
2022/04/06 05:54:54;;;;;;;7.13;2.88;;;;;;;18.89;35.06;96249.13;5115331;28;20393;-64
2022/04/06 05:57:20;;;;;;;3.72;2.85;;;;;;;19.17;34.80;96255.81;5115486;28;20098;-64
2022/04/06 05:59:47;;;;;;;5.55;3.38;;;;;;;19.42;34.37;96255.72;5115114;28;20023;-64
2022/04/06 06:02:12;;;;;;;3.78;3.33;;;;;;;19.37;34.02;96256.06;5115064;28;20463;-64
2022/04/06 06:04:39;;;;;;;5.97;3.38;;;;;;;19.44;33.60;96259.91;5115201;28;20099;-64
2022/04/06 06:07:05;;;;;;;5.22;3.35;;;;;;;19.54;33.19;96259.19;5115060;28;20028;-64
2022/04/06 06:09:31;;;;;;;3.65;3.25;;;;;;;19.52;33.77;96261.13;5114934;28;20381;-64
2022/04/06 06:11:58;;;;;;;4.93;2.95;;;;;;;19.56;31.60;96252.81;5114905;28;20414;-64
2022/04/06 06:14:24;;;;;;;8.68;3.35;;;;;;;19.76;31.22;96262.78;5114952;28;20053;-64
2022/04/06 06:16:50;;;;;;;7.80;2.78;;;;;;;19.84;31.38;96249.78;5114856;28;20373;-64
2022/04/06 06:19:16;;;;;;;8.10;2.90;;;;;;;19.62;30.81;96256.78;5114851;27;20102;-64
2022/04/06 06:21:42;;;;;;;3.30;2.85;;;;;;;19.63;30.87;96249.66;5114405;28;20047;-64
2022/04/06 06:24:07;;;;;;;4.47;3.13;;;;;;;19.40;30.64;96254.97;5114806;28;20106;-64
2022/04/06 06:26:36;;;;;;;6.18;3.17;;;;;;;19.73;30.95;96252.41;5114606;28;20416;-65
2022/04/06 06:29:02;;;;;;;5.25;2.75;;;;;;;20.11;30.60;96253.00;5114673;28;20058;-64
2022/04/06 06:31:28;;;;;;;3.63;2.78;;;;;;;19.79;29.48;96259.91;5114690;28;20110;-65
2022/04/06 06:33:58;;;;;;;4.07;3.03;;;;;;;20.11;31.07;96263.59;5114704;28;20545;-64
2022/04/06 06:36:24;;;;;;;5.47;2.80;;;;;;;20.20;28.98;96254.91;5114622;27;20053;-64
2022/04/06 06:38:51;;;;;;;4.78;3.03;;;;;;;20.50;28.80;96263.94;5114339;28;20047;-64
2022/04/06 06:41:17;;;;;;;3.63;3.20;;;;;;;20.67;29.08;96264.34;5114270;28;20020;-64
2022/04/06 06:43:44;;;;;;;3.20;2.88;;;;;;;20.76;29.70;96254.75;5114397;28;20503;-64
2022/04/06 06:46:10;;;;;;;6.20;2.65;;;;;;;21.00;28.89;96259.84;5114268;28;20024;-65
2022/04/06 06:48:37;;;;;;;6.35;3.05;;;;;;;21.26;28.10;96263.91;5114286;28;20024;-64
2022/04/06 06:51:03;;;;;;;5.20;3.20;;;;;;;21.44;28.45;96262.34;5114248;28;20033;-65
2022/04/06 06:53:29;;;;;;;4.93;2.97;;;;;;;21.47;28.95;96269.19;5114155;28;20052;-65
2022/04/06 06:55:55;;;;;;;3.90;3.03;;;;;;;21.13;30.16;96272.94;5114210;28;20774;-65
2022/04/06 06:58:21;;;;;;;3.33;3.03;;;;;;;20.89;30.47;96265.22;5114210;28;20118;-64
2022/04/06 07:00:47;;;;;;;4.70;3.00;;;;;;;20.39;30.80;96267.50;5114067;27;20024;-64
2022/04/06 07:03:13;;;;;;;3.33;2.67;;;;;;;20.48;29.95;96265.03;5113513;28;20030;-64
2022/04/06 07:05:40;;;;;;;3.45;2.83;;;;;;;20.44;30.98;96264.47;5113943;28;20031;-65
2022/04/06 07:08:06;;;;;;;3.75;2.95;;;;;;;20.67;31.38;96274.97;5113903;28;20023;-65
2022/04/06 07:10:32;;;;;;;4.05;3.25;;;;;;;21.13;29.04;96280.91;5113943;28;20110;-64
2022/04/06 07:12:57;;;;;;;6.70;2.92;;;;;;;20.64;31.02;96276.09;5113941;28;20091;-64
2022/04/06 07:15:24;;;;;;;3.58;2.90;;;;;;;20.90;29.70;96275.75;5113772;28;20027;-64
2022/04/06 07:17:55;;;;;;;4.10;3.22;;;;;;;21.01;28.88;96271.34;5113756;28;20019;-65
2022/04/06 07:20:23;;;;;;;6.28;2.85;;;;;;;21.23;28.39;96278.31;5113528;28;20028;-64
2022/04/06 07:22:50;;;;;;;4.30;2.47;;;;;;;21.19;28.21;96276.91;5113626;28;20559;-65
2022/04/06 07:25:17;;;;;;;7.78;2.80;;;;;;;20.74;29.36;96277.97;5113754;28;20049;-64
2022/04/06 07:27:43;;;;;;;5.28;2.38;;;;;;;20.54;27.87;96281.34;5113798;28;20128;-64
2022/04/06 07:30:09;;;;;;;6.32;2.60;;;;;;;20.70;28.29;96283.53;5113844;28;20025;-65
2022/04/06 07:32:35;;;;;;;3.85;2.78;;;;;;;20.69;28.61;96284.53;5113643;28;20020;-64
2022/04/06 07:35:04;;;;;;;4.97;2.70;;;;;;;20.69;27.13;96284.53;5113731;28;20088;-65
2022/04/06 07:37:50;;;;;;;8.80;2.85;;;;;;;20.99;28.77;96292.72;5113713;28;20059;-65
2022/04/06 07:40:18;;;;;;;3.75;2.65;;;;;;;21.05;27.98;96286.91;5113724;28;20102;-65
2022/04/06 07:42:44;;;;;;;3.40;2.17;;;;;;;20.71;27.50;96287.88;5113510;28;20489;-65
2022/04/06 07:45:16;;;;;;;3.30;2.30;;;;;;;20.53;29.36;96284.13;5113430;28;20023;-65
2022/04/06 07:47:42;;;;;;;6.93;2.72;;;;;;;20.77;29.88;96283.88;5113462;28;20468;-65
2022/04/06 07:50:09;;;;;;;4.13;2.80;;;;;;;20.73;28.46;96282.44;5113377;28;20051;-65
2022/04/06 07:52:36;;;;;;;2.55;2.28;;;;;;;21.06;29.54;96283.25;5113467;28;20035;-65
2022/04/06 07:55:06;;;;;;;3.00;2.30;;;;;;;20.95;28.86;96284.16;5113479;28;20051;-65
2022/04/06 07:57:32;;;;;;;5.38;3.03;;;;;;;21.03;29.32;96286.19;5113454;28;20036;-65
2022/04/06 07:59:58;;;;;;;4.97;2.38;;;;;;;20.95;28.54;96284.16;5113415;28;20103;-65
2022/04/06 08:02:24;;;;;;;3.97;2.65;;;;;;;21.27;28.73;96286.88;5113152;28;20122;-65
2022/04/06 08:04:50;;;;;;;4.90;2.85;;;;;;;21.45;27.56;96284.44;5113497;28;20026;-65
2022/04/06 08:07:16;;;;;;;5.53;2.92;;;;;;;21.43;29.37;96281.91;5113322;28;20023;-65
2022/04/06 08:09:41;;;;;;;3.38;3.00;;;;;;;21.53;29.95;96279.31;5113262;28;20023;-65
2022/04/06 08:12:07;;;;;;;4.63;3.00;;;;;;;21.60;25.96;96282.25;5113339;28;20023;-64
2022/04/06 08:14:33;;;;;;;3.97;2.83;;;;;;;21.39;28.72;96277.84;5113713;28;20019;-64
2022/04/06 08:16:59;;;;;;;5.53;2.70;;;;;;;21.24;29.10;96269.34;5117296;28;20496;-65
2022/04/06 08:19:25;;;;;;;3.97;3.20;;;;;;;21.27;30.23;96278.88;5117123;28;20062;-65
2022/04/06 08:21:52;;;;;;;2.83;2.50;;;;;;;21.20;31.52;96279.41;5116965;28;20104;-65
2022/04/06 08:24:17;;;;;;;7.20;3.03;;;;;;;21.00;30.01;96274.94;5117109;28;20036;-65
2022/04/06 08:26:43;;;;;;;4.95;2.58;;;;;;;21.03;30.30;96272.88;5117032;27;20023;-64
2022/04/06 08:29:09;;;;;;;3.65;2.33;;;;;;;21.05;29.52;96273.59;5117070;28;20018;-66
2022/04/06 08:31:36;;;;;;;4.43;2.25;;;;;;;21.13;29.04;96275.59;5117012;28;20090;-65
2022/04/06 08:34:03;;;;;;;5.32;2.33;;;;;;;21.45;29.57;96281.78;5116881;28;20024;-65
2022/04/06 08:36:29;;;;;;;3.45;2.63;;;;;;;21.00;29.61;96274.94;5117058;28;20028;-65
2022/04/06 08:38:55;;;;;;;4.28;2.50;;;;;;;21.11;27.49;96282.03;5115513;28;20030;-65
2022/04/06 08:41:24;;;;;;;2.53;2.10;;;;;;;21.02;26.82;96267.69;5116639;28;20093;-65
2022/04/06 08:43:50;;;;;;;2.22;2.10;;;;;;;21.05;28.60;96270.09;5116786;28;20430;-64
2022/04/06 08:46:17;;;;;;;2.72;2.45;;;;;;;20.91;30.16;96271.25;5116631;28;20098;-65
2022/04/06 08:48:47;;;;;;;3.08;2.50;;;;;;;20.94;30.50;96271.00;5116586;28;20031;-65
2022/04/06 08:51:15;;;;;;;6.27;2.80;;;;;;;20.98;29.99;96267.09;5116664;28;20107;-64
2022/04/06 08:53:41;;;;;;;4.15;2.65;;;;;;;21.07;29.53;96268.16;5116726;28;20019;-65
2022/04/06 08:56:08;;;;;;;3.97;2.60;;;;;;;20.92;30.40;96268.47;5116692;28;20072;-65
2022/04/06 08:58:33;;;;;;;2.58;2.20;;;;;;;20.99;30.13;96263.50;5116453;27;20023;-65
2022/04/06 09:00:59;;;;;;;5.07;3.25;;;;;;;20.83;30.26;96267.41;5116355;28;20038;-65
2022/04/06 09:03:25;;;;;;;5.18;2.55;;;;;;;21.04;30.27;96263.94;5116271;28;20023;-65
2022/04/06 09:06:00;;;;;;;6.20;2.55;;;;;;;21.36;29.90;96266.59;5116370;28;20020;-65
2022/04/06 09:08:43;;;;;;;5.57;2.60;;;;;;;21.19;29.43;96263.63;5116393;28;20043;-65
2022/04/06 09:11:11;;;;;;;3.28;2.38;;;;;;;20.66;32.07;96260.88;5116284;28;20035;-65
2022/04/06 09:13:38;;;;;;;7.50;3.00;;;;;;;20.82;30.17;96262.22;5116106;28;20058;-65
2022/04/06 09:16:07;;;;;;;3.05;2.60;;;;;;;20.66;30.28;96273.31;5116265;28;20034;-65
2022/04/06 09:18:41;;;;;;;3.65;2.70;;;;;;;20.26;30.26;96261.50;5116067;28;20497;-65
2022/04/06 09:21:08;;;;;;;3.53;2.58;;;;;;;20.42;31.11;96259.28;5115880;28;20047;-65
2022/04/06 09:23:34;;;;;;;3.47;2.30;;;;;;;20.38;30.45;96260.47;5115892;28;20031;-65
2022/04/06 09:26:08;;;;;;;3.53;2.50;;;;;;;20.45;30.65;96255.53;5115726;28;20085;-63
2022/04/06 09:28:38;;;;;;;4.70;2.70;;;;;;;20.38;29.63;96252.50;5115798;28;20027;-65
2022/04/06 09:31:04;;;;;;;2.80;2.20;;;;;;;20.30;29.99;96261.13;5115999;28;20484;-65
2022/04/06 09:33:30;;;;;;;3.55;2.10;;;;;;;20.46;31.26;96251.88;5115808;28;20028;-65
2022/04/06 09:35:58;;;;;;;6.13;2.38;;;;;;;20.75;29.55;96253.09;5115746;28;20023;-64
2022/04/06 09:38:27;;;;;;;2.92;2.33;;;;;;;20.70;30.71;96256.13;5115662;28;20488;-65
2022/04/06 09:41:05;;;;;;;5.18;2.53;;;;;;;20.76;30.78;96255.63;5115526;28;20479;-65
2022/04/06 09:43:33;;;;;;;4.20;3.00;;;;;;;20.86;30.80;96253.00;5115584;28;20028;-65
2022/04/06 09:49:25;;;;;;;3.35;3.05;;;;;;;20.57;31.21;96241.22;5115863;28;20424;-65
2022/04/06 09:51:51;;;;;;;2.88;2.45;;;;;;;20.73;29.13;96245.25;5114284;28;20044;-66
2022/04/06 09:54:18;;;;;;;7.80;2.50;;;;;;;20.77;29.22;96251.16;5115321;28;20038;-66
2022/04/06 09:56:44;;;;;;;5.63;2.70;;;;;;;20.71;29.50;96240.06;5115488;28;20107;-65
2022/04/06 09:59:14;;;;;;;2.85;2.55;;;;;;;20.84;30.52;96236.38;5115300;28;20019;-65
2022/04/06 10:01:48;;;;;;;2.75;2.22;;;;;;;20.86;32.43;96239.72;5115067;28;20431;-65
2022/04/06 10:04:19;;;;;;;3.10;2.25;;;;;;;20.61;27.43;96239.16;5115148;28;20027;-65
2022/04/06 10:06:45;;;;;;;2.97;2.35;;;;;;;20.78;29.08;96234.22;5113906;28;20366;-65
2022/04/06 10:09:16;;;;;;;2.70;2.22;;;;;;;20.35;28.42;96239.53;5115073;28;20030;-65
2022/04/06 10:11:43;;;;;;;4.55;2.08;;;;;;;19.96;29.69;96234.66;5115125;28;20015;-65
2022/04/06 10:14:10;;;;;;;4.43;2.15;;;;;;;19.55;28.42;96231.72;5114886;28;20024;-65
2022/04/06 10:16:38;;;;;;;3.42;2.33;;;;;;;19.42;29.46;96223.88;5114862;28;20031;-65
2022/04/06 10:19:11;;;;;;;2.90;2.30;;;;;;;19.50;30.12;96228.59;5114880;28;20417;-65
2022/04/06 10:21:53;;;;;;;5.35;2.13;;;;;;;19.73;28.41;96223.25;5114615;28;20055;-65
2022/04/06 10:24:40;;;;;;;3.22;2.00;;;;;;;19.79;28.83;96222.75;5114914;28;20416;-65
2022/04/06 10:27:23;;;;;;;4.30;2.60;;;;;;;20.06;30.35;96211.75;5114691;28;20033;-65
2022/04/06 10:30:10;;;;;;;2.58;2.20;;;;;;;20.33;30.35;96209.59;5114844;28;20028;-65
2022/04/06 10:32:45;;;;;;;3.35;2.25;;;;;;;20.53;29.19;96207.91;5114740;28;20481;-65
2022/04/06 10:35:31;;;;;;;2.58;2.38;;;;;;;20.72;27.42;96209.03;5114771;28;21159;-65
2022/04/06 10:38:00;;;;;;;2.88;2.17;;;;;;;20.82;27.06;96209.91;5113917;28;20045;-65
2022/04/06 10:40:46;;;;;;;5.28;2.28;;;;;;;20.87;28.82;96208.69;5114060;28;20027;-65
2022/04/06 10:43:34;;;;;;;2.08;1.77;;;;;;;20.23;26.91;96206.00;5114122;28;20028;-65
2022/04/06 10:46:00;;;;;;;5.30;2.20;;;;;;;20.35;26.54;96197.03;5114505;28;20028;-65
2022/04/06 10:48:26;;;;;;;4.43;2.38;;;;;;;20.30;26.80;96205.38;5114357;27;20035;-65
2022/04/06 10:50:53;;;;;;;6.97;2.20;;;;;;;20.15;29.82;96191.56;5114304;28;20023;-65
2022/04/06 10:53:19;;;;;;;3.90;2.42;;;;;;;20.42;29.51;96194.69;5114427;28;20030;-65
2022/04/06 10:56:02;;;;;;;2.75;2.10;;;;;;;20.42;31.59;96202.66;5114210;28;20016;-65
2022/04/06 10:58:48;;;;;;;5.13;2.22;;;;;;;20.49;29.53;96198.50;5114239;28;20393;-66
2022/04/06 11:01:18;;;;;;;5.20;2.60;;;;;;;20.58;31.04;96195.09;5114096;28;20030;-65
2022/04/06 11:04:04;;;;;;;2.90;2.58;;;;;;;20.69;26.89;96196.00;5113951;28;20065;-65
2022/04/06 11:07:03;;;;;;;2.83;2.22;;;;;;;20.71;27.45;96188.75;5114137;28;20397;-65
2022/04/06 11:12:43;;;;;;;3.50;2.38;;;;;;;20.58;28.34;96187.13;5114062;28;20085;-65
2022/04/06 11:15:09;;;;;;;6.20;2.42;;;;;;;20.69;28.14;96188.88;5097490;28;20059;-65
2022/04/06 11:20:11;;;;;;;3.65;2.17;;;;;;;20.78;26.80;96191.72;5113556;28;20031;-65
2022/04/06 11:22:53;;;;;;;3.95;2.42;;;;;;;20.72;26.59;96177.13;5113820;28;20031;-65
2022/04/06 11:25:21;;;;;;;2.72;2.45;;;;;;;20.60;26.41;96183.47;5113741;28;20103;-65
2022/04/06 11:27:47;;;;;;;6.05;2.10;;;;;;;20.32;29.02;96181.34;5113650;28;20102;-65
2022/04/06 11:30:21;;;;;;;4.03;2.35;;;;;;;20.39;28.09;96171.03;5113628;28;20362;-65
2022/04/06 11:32:52;;;;;;;2.95;2.65;;;;;;;20.60;29.46;96168.41;5113755;28;20469;-65
2022/04/06 11:35:18;;;;;;;4.63;2.38;;;;;;;20.64;29.05;96177.78;5113670;28;20028;-65
2022/04/06 11:37:48;;;;;;;7.00;2.30;;;;;;;20.50;27.13;96165.66;5113744;28;20073;-65
2022/04/06 11:40:33;;;;;;;3.67;2.75;;;;;;;20.48;27.64;96153.47;5113658;28;20088;-65
2022/04/06 11:43:05;;;;;;;4.97;2.47;;;;;;;20.26;28.92;96157.97;5113457;28;20028;-65
2022/04/06 11:45:40;;;;;;;3.33;2.80;;;;;;;20.18;28.70;96153.28;5113530;28;20091;-65
2022/04/06 11:48:08;;;;;;;2.88;1.98;;;;;;;20.20;28.72;96152.19;5113473;28;20061;-65
2022/04/06 11:50:39;;;;;;;3.95;2.40;;;;;;;20.20;27.59;96157.50;5115742;28;20016;-65
2022/04/06 11:53:08;;;;;;;4.47;2.00;;;;;;;20.12;26.38;96151.13;5117751;28;20474;-64